sensor_id;sensor_type;location;lat;lon;timestamp;pressure;altitude;pressure_sealevel;temperature;humidity
58975;BME280;44751;52.236;5.178;2023-04-01T00:01:10;98860.94;;;10.16;100.00
58975;BME280;44751;52.236;5.178;2023-04-01T00:03:39;98872.84;;;10.08;100.00
58975;BME280;44751;52.236;5.178;2023-04-01T00:06:16;98858.22;;;10.16;100.00
58975;BME280;44751;52.236;5.178;2023-04-01T00:08:44;98865.34;;;10.11;100.00
58975;BME280;44751;52.236;5.178;2023-04-01T00:11:10;98869.31;;;10.27;100.00
58975;BME280;44751;52.236;5.178;2023-04-01T00:13:44;98863.91;;;10.27;100.00
58975;BME280;44751;52.236;5.178;2023-04-01T00:16:11;98866.75;;;10.32;100.00
58975;BME280;44751;52.236;5.178;2023-04-01T00:18:38;98863.91;;;10.27;100.00
58975;BME280;44751;52.236;5.178;2023-04-01T00:21:24;98867.50;;;10.20;100.00
58975;BME280;44751;52.236;5.178;2023-04-01T00:23:51;98870.69;;;10.17;100.00
58975;BME280;44751;52.236;5.178;2023-04-01T00:26:18;98874.41;;;10.35;100.00
58975;BME280;44751;52.236;5.178;2023-04-01T00:28:47;98867.38;;;10.15;100.00
58975;BME280;44751;52.236;5.178;2023-04-01T00:31:18;98870.22;;;10.02;100.00
58975;BME280;44751;52.236;5.178;2023-04-01T00:33:45;98870.69;;;9.99;100.00
58975;BME280;44751;52.236;5.178;2023-04-01T00:36:15;98870.06;;;10.15;100.00
58975;BME280;44751;52.236;5.178;2023-04-01T00:38:44;98869.78;;;10.05;100.00
58975;BME280;44751;52.236;5.178;2023-04-01T00:41:17;98876.13;;;10.11;100.00
58975;BME280;44751;52.236;5.178;2023-04-01T00:43:48;98875.63;;;10.02;100.00
58975;BME280;44751;52.236;5.178;2023-04-01T00:46:16;98870.38;;;10.07;100.00
58975;BME280;44751;52.236;5.178;2023-04-01T00:48:53;98878.09;;;10.03;100.00
58975;BME280;44751;52.236;5.178;2023-04-01T00:51:25;98885.28;;;9.91;100.00
58975;BME280;44751;52.236;5.178;2023-04-01T00:53:56;98878.75;;;10.17;100.00
58975;BME280;44751;52.236;5.178;2023-04-01T00:56:39;98884.22;;;9.92;100.00
58975;BME280;44751;52.236;5.178;2023-04-01T00:59:14;98877.91;;;9.98;100.00
58975;BME280;44751;52.236;5.178;2023-04-01T01:01:50;98888.91;;;9.97;100.00
58975;BME280;44751;52.236;5.178;2023-04-01T01:04:28;98884.28;;;10.04;100.00
58975;BME280;44751;52.236;5.178;2023-04-01T01:12:47;98885.72;;;9.88;100.00
58975;BME280;44751;52.236;5.178;2023-04-01T01:15:25;98885.09;;;9.86;100.00
58975;BME280;44751;52.236;5.178;2023-04-01T01:32:37;98890.88;;;9.89;100.00
58975;BME280;44751;52.236;5.178;2023-04-01T01:35:31;98891.63;;;9.78;100.00
58975;BME280;44751;52.236;5.178;2023-04-01T01:38:10;98887.09;;;9.72;100.00
58975;BME280;44751;52.236;5.178;2023-04-01T01:40:41;98893.00;;;9.62;100.00
58975;BME280;44751;52.236;5.178;2023-04-01T01:43:10;98890.28;;;9.68;100.00
58975;BME280;44751;52.236;5.178;2023-04-01T01:46:29;98888.81;;;9.66;100.00
58975;BME280;44751;52.236;5.178;2023-04-01T01:48:40;98893.09;;;9.74;100.00
58975;BME280;44751;52.236;5.178;2023-04-01T01:51:11;98897.78;;;9.60;100.00
58975;BME280;44751;52.236;5.178;2023-04-01T01:53:38;98900.28;;;9.61;100.00
58975;BME280;44751;52.236;5.178;2023-04-01T01:56:09;98907.44;;;9.67;100.00
58975;BME280;44751;52.236;5.178;2023-04-01T01:58:49;98901.28;;;9.60;100.00
58975;BME280;44751;52.236;5.178;2023-04-01T02:01:23;98898.28;;;9.50;100.00
58975;BME280;44751;52.236;5.178;2023-04-01T02:03:53;98899.28;;;9.55;100.00
58975;BME280;44751;52.236;5.178;2023-04-01T02:06:23;98901.34;;;9.53;100.00
58975;BME280;44751;52.236;5.178;2023-04-01T02:09:01;98911.91;;;9.55;100.00
58975;BME280;44751;52.236;5.178;2023-04-01T02:11:56;98913.41;;;9.51;100.00
58975;BME280;44751;52.236;5.178;2023-04-01T02:14:28;98915.28;;;9.50;100.00
58975;BME280;44751;52.236;5.178;2023-04-01T02:17:01;98923.00;;;9.65;100.00
58975;BME280;44751;52.236;5.178;2023-04-01T02:20:01;98917.56;;;9.47;100.00
58975;BME280;44751;52.236;5.178;2023-04-01T02:22:29;98909.13;;;9.43;100.00
58975;BME280;44751;52.236;5.178;2023-04-01T02:25:01;98920.59;;;9.57;100.00
58975;BME280;44751;52.236;5.178;2023-04-01T02:27:30;98921.47;;;9.76;100.00
58975;BME280;44751;52.236;5.178;2023-04-01T02:29:57;98922.47;;;9.56;100.00
58975;BME280;44751;52.236;5.178;2023-04-01T02:32:24;98929.47;;;9.58;100.00
58975;BME280;44751;52.236;5.178;2023-04-01T02:34:57;98934.31;;;9.74;100.00
58975;BME280;44751;52.236;5.178;2023-04-01T02:37:28;98937.06;;;9.67;100.00
58975;BME280;44751;52.236;5.178;2023-04-01T02:39:59;98931.59;;;9.55;100.00
58975;BME280;44751;52.236;5.178;2023-04-01T02:42:26;98932.03;;;9.52;100.00
58975;BME280;44751;52.236;5.178;2023-04-01T02:44:59;98934.78;;;9.71;100.00
58975;BME280;44751;52.236;5.178;2023-04-01T02:47:26;98942.78;;;9.78;100.00
58975;BME280;44751;52.236;5.178;2023-04-01T02:49:53;98942.06;;;9.64;100.00
58975;BME280;44751;52.236;5.178;2023-04-01T02:52:27;98946.41;;;9.65;100.00
58975;BME280;44751;52.236;5.178;2023-04-01T02:54:57;98953.50;;;9.85;100.00
58975;BME280;44751;52.236;5.178;2023-04-01T02:57:24;98956.47;;;9.76;100.00
58975;BME280;44751;52.236;5.178;2023-04-01T02:59:51;98962.00;;;9.81;100.00
58975;BME280;44751;52.236;5.178;2023-04-01T03:02:21;98966.59;;;9.81;100.00
58975;BME280;44751;52.236;5.178;2023-04-01T03:04:50;98963.78;;;9.69;100.00
58975;BME280;44751;52.236;5.178;2023-04-01T03:07:17;98964.47;;;9.83;100.00
58975;BME280;44751;52.236;5.178;2023-04-01T03:09:44;98969.88;;;9.83;100.00
58975;BME280;44751;52.236;5.178;2023-04-01T03:12:10;98969.06;;;9.82;100.00
58975;BME280;44751;52.236;5.178;2023-04-01T03:14:39;98978.22;;;9.75;100.00
58975;BME280;44751;52.236;5.178;2023-04-01T03:17:09;98976.75;;;9.79;100.00
58975;BME280;44751;52.236;5.178;2023-04-01T03:19:41;98985.75;;;9.91;100.00
58975;BME280;44751;52.236;5.178;2023-04-01T03:22:10;98987.44;;;9.86;100.00
58975;BME280;44751;52.236;5.178;2023-04-01T03:24:37;98990.97;;;9.86;100.00
58975;BME280;44751;52.236;5.178;2023-04-01T03:27:04;99000.13;;;9.85;100.00
58975;BME280;44751;52.236;5.178;2023-04-01T03:29:31;98999.50;;;9.83;100.00
58975;BME280;44751;52.236;5.178;2023-04-01T03:31:57;99010.88;;;9.85;100.00
58975;BME280;44751;52.236;5.178;2023-04-01T03:34:25;99005.44;;;9.92;100.00
58975;BME280;44751;52.236;5.178;2023-04-01T03:36:52;99007.50;;;9.90;100.00
58975;BME280;44751;52.236;5.178;2023-04-01T03:39:21;99001.69;;;9.93;100.00
58975;BME280;44751;52.236;5.178;2023-04-01T03:41:49;99002.25;;;10.02;100.00
58975;BME280;44751;52.236;5.178;2023-04-01T03:44:15;99011.03;;;9.90;100.00
58975;BME280;44751;52.236;5.178;2023-04-01T03:46:42;99016.28;;;9.85;100.00
58975;BME280;44751;52.236;5.178;2023-04-01T03:49:12;99011.47;;;9.87;100.00
58975;BME280;44751;52.236;5.178;2023-04-01T03:51:44;99014.88;;;9.76;100.00
58975;BME280;44751;52.236;5.178;2023-04-01T03:54:14;99027.00;;;9.92;100.00
58975;BME280;44751;52.236;5.178;2023-04-01T03:56:41;99030.06;;;9.95;100.00
58975;BME280;44751;52.236;5.178;2023-04-01T03:59:07;99026.94;;;9.99;100.00
58975;BME280;44751;52.236;5.178;2023-04-01T04:01:34;99042.75;;;10.14;100.00
58975;BME280;44751;52.236;5.178;2023-04-01T04:04:07;99037.19;;;10.08;100.00
58975;BME280;44751;52.236;5.178;2023-04-01T04:06:36;99049.09;;;10.01;100.00
58975;BME280;44751;52.236;5.178;2023-04-01T04:09:02;99051.00;;;9.93;100.00
58975;BME280;44751;52.236;5.178;2023-04-01T04:11:32;99053.66;;;10.00;100.00
58975;BME280;44751;52.236;5.178;2023-04-01T04:14:00;99058.41;;;9.98;100.00
58975;BME280;44751;52.236;5.178;2023-04-01T04:16:27;99067.69;;;10.09;100.00
58975;BME280;44751;52.236;5.178;2023-04-01T04:18:53;99070.53;;;10.14;100.00
58975;BME280;44751;52.236;5.178;2023-04-01T04:21:20;99067.06;;;10.07;100.00
58975;BME280;44751;52.236;5.178;2023-04-01T04:23:49;99074.31;;;10.06;100.00
58975;BME280;44751;52.236;5.178;2023-04-01T04:26:16;99080.97;;;10.04;100.00
58975;BME280;44751;52.236;5.178;2023-04-01T04:28:43;99088.63;;;10.07;100.00
58975;BME280;44751;52.236;5.178;2023-04-01T04:31:09;99083.28;;;10.00;100.00
58975;BME280;44751;52.236;5.178;2023-04-01T04:33:41;99089.72;;;9.99;100.00
58975;BME280;44751;52.236;5.178;2023-04-01T04:36:15;99087.63;;;10.01;100.00
58975;BME280;44751;52.236;5.178;2023-04-01T04:38:41;99098.97;;;10.10;100.00
58975;BME280;44751;52.236;5.178;2023-04-01T04:41:16;99102.22;;;10.19;100.00
58975;BME280;44751;52.236;5.178;2023-04-01T04:43:56;99109.59;;;10.05;100.00
58975;BME280;44751;52.236;5.178;2023-04-01T04:46:23;99115.94;;;10.11;100.00
58975;BME280;44751;52.236;5.178;2023-04-01T04:48:50;99121.25;;;10.24;100.00
58975;BME280;44751;52.236;5.178;2023-04-01T04:51:18;99118.69;;;10.04;100.00
58975;BME280;44751;52.236;5.178;2023-04-01T04:53:49;99128.16;;;10.13;100.00
58975;BME280;44751;52.236;5.178;2023-04-01T04:56:22;99139.97;;;10.12;100.00
58975;BME280;44751;52.236;5.178;2023-04-01T04:58:50;99135.41;;;10.13;100.00
58975;BME280;44751;52.236;5.178;2023-04-01T05:04:04;99151.69;;;10.25;100.00
58975;BME280;44751;52.236;5.178;2023-04-01T05:06:33;99151.94;;;10.23;100.00
58975;BME280;44751;52.236;5.178;2023-04-01T05:09:00;99161.72;;;10.17;100.00
58975;BME280;44751;52.236;5.178;2023-04-01T05:11:29;99162.75;;;10.16;100.00
58975;BME280;44751;52.236;5.178;2023-04-01T05:13:55;99166.28;;;10.17;100.00
58975;BME280;44751;52.236;5.178;2023-04-01T05:16:22;99178.06;;;10.23;100.00
58975;BME280;44751;52.236;5.178;2023-04-01T05:18:51;99170.19;;;10.21;100.00
58975;BME280;44751;52.236;5.178;2023-04-01T05:21:22;99175.84;;;10.13;100.00
58975;BME280;44751;52.236;5.178;2023-04-01T05:23:49;99176.91;;;10.12;100.00
58975;BME280;44751;52.236;5.178;2023-04-01T05:26:15;99179.97;;;10.15;100.00
58975;BME280;44751;52.236;5.178;2023-04-01T05:28:42;99183.53;;;10.09;100.00
58975;BME280;44751;52.236;5.178;2023-04-01T05:31:26;99186.66;;;10.06;100.00
58975;BME280;44751;52.236;5.178;2023-04-01T05:33:53;99200.94;;;10.06;100.00
58975;BME280;44751;52.236;5.178;2023-04-01T05:36:20;99195.38;;;10.01;100.00
58975;BME280;44751;52.236;5.178;2023-04-01T05:38:49;99198.50;;;10.05;100.00
58975;BME280;44751;52.236;5.178;2023-04-01T05:41:18;99199.03;;;10.14;100.00
58975;BME280;44751;52.236;5.178;2023-04-01T05:43:48;99208.56;;;10.16;100.00
58975;BME280;44751;52.236;5.178;2023-04-01T05:46:15;99208.81;;;10.08;100.00
58975;BME280;44751;52.236;5.178;2023-04-01T05:48:42;99217.91;;;10.14;100.00
58975;BME280;44751;52.236;5.178;2023-04-01T05:51:15;99220.06;;;10.05;100.00
58975;BME280;44751;52.236;5.178;2023-04-01T05:53:42;99217.09;;;10.13;100.00
58975;BME280;44751;52.236;5.178;2023-04-01T05:56:12;99229.09;;;10.17;100.00
58975;BME280;44751;52.236;5.178;2023-04-01T05:58:39;99234.06;;;10.14;100.00
58975;BME280;44751;52.236;5.178;2023-04-01T06:01:10;99232.97;;;10.28;100.00
58975;BME280;44751;52.236;5.178;2023-04-01T06:03:37;99224.09;;;10.21;100.00
58975;BME280;44751;52.236;5.178;2023-04-01T06:06:15;99235.88;;;10.27;100.00
58975;BME280;44751;52.236;5.178;2023-04-01T06:08:43;99241.09;;;10.15;100.00
58975;BME280;44751;52.236;5.178;2023-04-01T06:11:23;99243.59;;;10.16;100.00
58975;BME280;44751;52.236;5.178;2023-04-01T06:14:17;99260.13;;;10.27;100.00
58975;BME280;44751;52.236;5.178;2023-04-01T06:23:02;99266.00;;;10.17;100.00
58975;BME280;44751;52.236;5.178;2023-04-01T06:37:27;99293.22;;;10.48;100.00
58975;BME280;44751;52.236;5.178;2023-04-01T06:51:23;99325.16;;;10.44;100.00
58975;BME280;44751;52.236;5.178;2023-04-01T06:54:16;99332.81;;;10.47;100.00
58975;BME280;44751;52.236;5.178;2023-04-01T06:56:48;99330.34;;;10.45;100.00
58975;BME280;44751;52.236;5.178;2023-04-01T06:59:25;99327.25;;;10.35;100.00
58975;BME280;44751;52.236;5.178;2023-04-01T07:02:00;99333.31;;;10.24;100.00
58975;BME280;44751;52.236;5.178;2023-04-01T07:04:47;99335.34;;;10.35;100.00
58975;BME280;44751;52.236;5.178;2023-04-01T07:07:53;99336.44;;;10.27;100.00
58975;BME280;44751;52.236;5.178;2023-04-01T07:13:21;99353.28;;;10.62;100.00
58975;BME280;44751;52.236;5.178;2023-04-01T07:19:03;99368.25;;;10.57;100.00
58975;BME280;44751;52.236;5.178;2023-04-01T07:21:37;99364.53;;;10.52;100.00
58975;BME280;44751;52.236;5.178;2023-04-01T07:24:11;99378.56;;;10.67;100.00
58975;BME280;44751;52.236;5.178;2023-04-01T07:26:43;99373.81;;;10.63;100.00
58975;BME280;44751;52.236;5.178;2023-04-01T07:29:19;99378.66;;;10.54;100.00
58975;BME280;44751;52.236;5.178;2023-04-01T07:34:37;99385.38;;;10.70;100.00
58975;BME280;44751;52.236;5.178;2023-04-01T07:37:14;99385.63;;;10.62;100.00
58975;BME280;44751;52.236;5.178;2023-04-01T07:40:27;99403.84;;;10.73;100.00
58975;BME280;44751;52.236;5.178;2023-04-01T07:46:10;99402.75;;;10.81;100.00
58975;BME280;44751;52.236;5.178;2023-04-01T07:54:08;99413.25;;;10.96;100.00
58975;BME280;44751;52.236;5.178;2023-04-01T07:57:09;99415.97;;;10.96;100.00
58975;BME280;44751;52.236;5.178;2023-04-01T08:02:43;99432.69;;;11.05;100.00
58975;BME280;44751;52.236;5.178;2023-04-01T08:05:29;99431.00;;;11.10;100.00
58975;BME280;44751;52.236;5.178;2023-04-01T08:08:15;99446.94;;;11.19;100.00
58975;BME280;44751;52.236;5.178;2023-04-01T08:10:53;99453.44;;;11.11;100.00
58975;BME280;44751;52.236;5.178;2023-04-01T08:16:22;99449.88;;;10.78;100.00
58975;BME280;44751;52.236;5.178;2023-04-01T08:21:51;99465.97;;;10.98;100.00
58975;BME280;44751;52.236;5.178;2023-04-01T08:24:45;99465.09;;;11.05;100.00
58975;BME280;44751;52.236;5.178;2023-04-01T08:27:26;99469.19;;;11.14;100.00
58975;BME280;44751;52.236;5.178;2023-04-01T08:30:18;99481.47;;;11.10;100.00
58975;BME280;44751;52.236;5.178;2023-04-01T08:39:15;99478.69;;;11.23;100.00
58975;BME280;44751;52.236;5.178;2023-04-01T08:42:04;99483.84;;;10.93;100.00
58975;BME280;44751;52.236;5.178;2023-04-01T08:47:46;99499.38;;;10.97;100.00
58975;BME280;44751;52.236;5.178;2023-04-01T08:53:19;99503.53;;;10.93;100.00
58975;BME280;44751;52.236;5.178;2023-04-01T08:56:14;99516.38;;;11.05;100.00
58975;BME280;44751;52.236;5.178;2023-04-01T09:01:57;99510.59;;;11.01;100.00
58975;BME280;44751;52.236;5.178;2023-04-01T09:14:07;99528.44;;;11.02;100.00
58975;BME280;44751;52.236;5.178;2023-04-01T09:25:32;99542.03;;;11.21;100.00
58975;BME280;44751;52.236;5.178;2023-04-01T09:28:10;99544.63;;;11.41;100.00
58975;BME280;44751;52.236;5.178;2023-04-01T09:34:26;99557.94;;;11.68;100.00
58975;BME280;44751;52.236;5.178;2023-04-01T09:45:20;99558.94;;;12.06;100.00
58975;BME280;44751;52.236;5.178;2023-04-01T09:48:19;99561.44;;;12.26;100.00
58975;BME280;44751;52.236;5.178;2023-04-01T09:53:36;99583.00;;;12.14;100.00
58975;BME280;44751;52.236;5.178;2023-04-01T10:11:23;99604.41;;;12.60;100.00
58975;BME280;44751;52.236;5.178;2023-04-01T10:14:34;99606.00;;;12.68;100.00
58975;BME280;44751;52.236;5.178;2023-04-01T10:23:07;99617.00;;;12.48;100.00
58975;BME280;44751;52.236;5.178;2023-04-01T10:26:11;99610.47;;;12.37;100.00
58975;BME280;44751;52.236;5.178;2023-04-01T10:34:29;99620.81;;;12.84;100.00
58975;BME280;44751;52.236;5.178;2023-04-01T10:56:54;99643.34;;;12.34;100.00
58975;BME280;44751;52.236;5.178;2023-04-01T11:02:37;99642.00;;;12.69;100.00
58975;BME280;44751;52.236;5.178;2023-04-01T11:08:37;99654.22;;;13.34;100.00
58975;BME280;44751;52.236;5.178;2023-04-01T11:23:07;99668.94;;;13.01;100.00
58975;BME280;44751;52.236;5.178;2023-04-01T11:34:58;99684.06;;;12.71;100.00
58975;BME280;44751;52.236;5.178;2023-04-01T11:40:26;99699.78;;;12.56;100.00
58975;BME280;44751;52.236;5.178;2023-04-01T11:45:29;99693.81;;;12.91;100.00
58975;BME280;44751;52.236;5.178;2023-04-01T11:51:03;99707.44;;;12.84;100.00
58975;BME280;44751;52.236;5.178;2023-04-01T11:54:10;99713.91;;;12.83;100.00
58975;BME280;44751;52.236;5.178;2023-04-01T12:05:41;99727.47;;;12.25;100.00
58975;BME280;44751;52.236;5.178;2023-04-01T12:11:06;99734.25;;;12.03;100.00
58975;BME280;44751;52.236;5.178;2023-04-01T12:13:59;99739.25;;;11.99;100.00
58975;BME280;44751;52.236;5.178;2023-04-01T12:16:59;99748.47;;;11.78;100.00
58975;BME280;44751;52.236;5.178;2023-04-01T12:28:14;99756.78;;;11.83;100.00
58975;BME280;44751;52.236;5.178;2023-04-01T12:37:12;99774.91;;;12.53;100.00
58975;BME280;44751;52.236;5.178;2023-04-01T12:45:23;99776.38;;;13.07;100.00
58975;BME280;44751;52.236;5.178;2023-04-01T13:02:27;99795.50;;;12.55;100.00
58975;BME280;44751;52.236;5.178;2023-04-01T13:10:15;99812.25;;;12.38;100.00
58975;BME280;44751;52.236;5.178;2023-04-01T13:15:49;99819.91;;;12.02;100.00
58975;BME280;44751;52.236;5.178;2023-04-01T13:21:17;99833.22;;;12.04;100.00
58975;BME280;44751;52.236;5.178;2023-04-01T13:26:53;99838.06;;;11.88;100.00
58975;BME280;44751;52.236;5.178;2023-04-01T13:32:18;99841.75;;;12.00;100.00
58975;BME280;44751;52.236;5.178;2023-04-01T13:40:45;99852.25;;;11.70;100.00
58975;BME280;44751;52.236;5.178;2023-04-01T13:43:42;99853.06;;;11.63;100.00
58975;BME280;44751;52.236;5.178;2023-04-01T13:46:54;99857.88;;;11.55;100.00
58975;BME280;44751;52.236;5.178;2023-04-01T13:54:41;99869.13;;;11.45;100.00
58975;BME280;44751;52.236;5.178;2023-04-01T14:17:10;99895.91;;;11.53;100.00
58975;BME280;44751;52.236;5.178;2023-04-01T14:22:35;99913.34;;;11.37;100.00
58975;BME280;44751;52.236;5.178;2023-04-01T14:28:44;99922.28;;;11.51;100.00
58975;BME280;44751;52.236;5.178;2023-04-01T14:33:43;99930.38;;;11.58;100.00
58975;BME280;44751;52.236;5.178;2023-04-01T14:36:50;99936.00;;;11.70;100.00
58975;BME280;44751;52.236;5.178;2023-04-01T14:45:26;99946.41;;;11.73;100.00
58975;BME280;44751;52.236;5.178;2023-04-01T14:48:21;99948.28;;;11.59;100.00
58975;BME280;44751;52.236;5.178;2023-04-01T14:50:50;99963.22;;;11.48;100.00
58975;BME280;44751;52.236;5.178;2023-04-01T14:55:59;99954.06;;;11.35;100.00
58975;BME280;44751;52.236;5.178;2023-04-01T14:58:49;99968.00;;;11.32;100.00
58975;BME280;44751;52.236;5.178;2023-04-01T15:01:47;99957.41;;;11.31;100.00
58975;BME280;44751;52.236;5.178;2023-04-01T15:07:06;99982.91;;;11.21;100.00
58975;BME280;44751;52.236;5.178;2023-04-01T15:18:03;100009.69;;;11.03;100.00
58975;BME280;44751;52.236;5.178;2023-04-01T15:26:32;100023.19;;;11.03;100.00
58975;BME280;44751;52.236;5.178;2023-04-01T15:32:02;100036.66;;;10.96;100.00
58975;BME280;44751;52.236;5.178;2023-04-01T15:38:06;100042.06;;;10.96;100.00
58975;BME280;44751;52.236;5.178;2023-04-01T15:40:56;100050.34;;;10.94;100.00
58975;BME280;44751;52.236;5.178;2023-04-01T15:43:44;100054.03;;;10.87;100.00
58975;BME280;44751;52.236;5.178;2023-04-01T15:46:29;100061.41;;;10.64;100.00
58975;BME280;44751;52.236;5.178;2023-04-01T15:49:36;100067.84;;;10.63;100.00
58975;BME280;44751;52.236;5.178;2023-04-01T15:57:56;100090.13;;;10.79;100.00
58975;BME280;44751;52.236;5.178;2023-04-01T16:00:54;100085.69;;;10.64;100.00
58975;BME280;44751;52.236;5.178;2023-04-01T16:12:18;100114.97;;;10.67;100.00
58975;BME280;44751;52.236;5.178;2023-04-01T16:17:43;100129.22;;;10.61;100.00
58975;BME280;44751;52.236;5.178;2023-04-01T16:20:22;100132.78;;;10.62;100.00
58975;BME280;44751;52.236;5.178;2023-04-01T16:23:25;100135.94;;;10.43;100.00
58975;BME280;44751;52.236;5.178;2023-04-01T16:26:03;100149.44;;;10.43;100.00
58975;BME280;44751;52.236;5.178;2023-04-01T16:28:56;100146.91;;;10.42;100.00
58975;BME280;44751;52.236;5.178;2023-04-01T16:34:37;100169.09;;;10.37;100.00
58975;BME280;44751;52.236;5.178;2023-04-01T16:37:20;100167.44;;;10.14;100.00
58975;BME280;44751;52.236;5.178;2023-04-01T16:43:19;100183.78;;;10.34;100.00
58975;BME280;44751;52.236;5.178;2023-04-01T16:49:03;100197.66;;;10.31;100.00
58975;BME280;44751;52.236;5.178;2023-04-01T16:51:41;100194.41;;;10.14;100.00
58975;BME280;44751;52.236;5.178;2023-04-01T16:54:25;100211.66;;;10.20;100.00
58975;BME280;44751;52.236;5.178;2023-04-01T16:57:15;100212.47;;;9.99;100.00
58975;BME280;44751;52.236;5.178;2023-04-01T17:02:49;100222.22;;;9.78;100.00
58975;BME280;44751;52.236;5.178;2023-04-01T17:05:18;100227.84;;;9.83;100.00
58975;BME280;44751;52.236;5.178;2023-04-01T17:18:58;100254.88;;;9.90;100.00
58975;BME280;44751;52.236;5.178;2023-04-01T17:21:54;100271.91;;;9.75;100.00
58975;BME280;44751;52.236;5.178;2023-04-01T17:27:42;100274.22;;;9.78;100.00
58975;BME280;44751;52.236;5.178;2023-04-01T17:33:01;100288.09;;;9.75;100.00
58975;BME280;44751;52.236;5.178;2023-04-01T17:41:31;100313.53;;;9.58;100.00
58975;BME280;44751;52.236;5.178;2023-04-01T17:49:39;100332.59;;;9.71;100.00
58975;BME280;44751;52.236;5.178;2023-04-01T17:58:22;100364.91;;;9.71;100.00
58975;BME280;44751;52.236;5.178;2023-04-01T18:01:15;100359.03;;;9.67;100.00
58975;BME280;44751;52.236;5.178;2023-04-01T18:18:08;100402.03;;;9.46;100.00
58975;BME280;44751;52.236;5.178;2023-04-01T18:20:58;100399.50;;;9.29;100.00
58975;BME280;44751;52.236;5.178;2023-04-01T18:23:43;100415.78;;;9.51;100.00
58975;BME280;44751;52.236;5.178;2023-04-01T18:26:22;100418.16;;;9.30;100.00
58975;BME280;44751;52.236;5.178;2023-04-01T18:28:56;100435.75;;;9.18;100.00
58975;BME280;44751;52.236;5.178;2023-04-01T18:31:31;100437.00;;;9.07;100.00
58975;BME280;44751;52.236;5.178;2023-04-01T18:34:18;100446.38;;;9.35;100.00
58975;BME280;44751;52.236;5.178;2023-04-01T18:36:53;100446.97;;;9.22;100.00
58975;BME280;44751;52.236;5.178;2023-04-01T18:39:30;100458.00;;;8.88;100.00
58975;BME280;44751;52.236;5.178;2023-04-01T18:42:14;100450.63;;;9.06;100.00
58975;BME280;44751;52.236;5.178;2023-04-01T18:44:52;100480.91;;;9.08;100.00
58975;BME280;44751;52.236;5.178;2023-04-01T18:49:55;100484.00;;;9.20;100.00
58975;BME280;44751;52.236;5.178;2023-04-01T18:57:45;100506.78;;;9.09;100.00
58975;BME280;44751;52.236;5.178;2023-04-01T19:00:32;100515.09;;;8.99;100.00
58975;BME280;44751;52.236;5.178;2023-04-01T19:03:20;100504.03;;;8.94;100.00
58975;BME280;44751;52.236;5.178;2023-04-01T19:05:51;100527.81;;;8.73;100.00
58975;BME280;44751;52.236;5.178;2023-04-01T19:08:25;100536.09;;;9.03;100.00
58975;BME280;44751;52.236;5.178;2023-04-01T19:11:13;100534.09;;;8.65;100.00
58975;BME280;44751;52.236;5.178;2023-04-01T19:14:01;100544.47;;;8.77;100.00
58975;BME280;44751;52.236;5.178;2023-04-01T19:16:49;100546.38;;;8.60;100.00
58975;BME280;44751;52.236;5.178;2023-04-01T19:21:55;100555.63;;;8.57;100.00
58975;BME280;44751;52.236;5.178;2023-04-01T19:24:38;100577.97;;;8.49;100.00
58975;BME280;44751;52.236;5.178;2023-04-01T19:32:58;100597.13;;;8.63;100.00
58975;BME280;44751;52.236;5.178;2023-04-01T19:38:28;100594.13;;;8.24;100.00
58975;BME280;44751;52.236;5.178;2023-04-01T19:49:45;100619.34;;;8.23;100.00
58975;BME280;44751;52.236;5.178;2023-04-01T19:52:39;100624.88;;;8.22;100.00
58975;BME280;44751;52.236;5.178;2023-04-01T19:58:23;100647.22;;;8.39;100.00
58975;BME280;44751;52.236;5.178;2023-04-01T20:01:00;100647.56;;;8.27;100.00
58975;BME280;44751;52.236;5.178;2023-04-01T20:03:52;100657.13;;;8.22;100.00
58975;BME280;44751;52.236;5.178;2023-04-01T20:06:27;100663.38;;;8.22;100.00
58975;BME280;44751;52.236;5.178;2023-04-01T20:09:07;100671.25;;;8.24;100.00
58975;BME280;44751;52.236;5.178;2023-04-01T20:12:22;100675.13;;;8.30;100.00
58975;BME280;44751;52.236;5.178;2023-04-01T20:14:51;100685.69;;;8.06;100.00
58975;BME280;44751;52.236;5.178;2023-04-01T20:17:41;100691.41;;;8.11;100.00
58975;BME280;44751;52.236;5.178;2023-04-01T20:25:38;100702.97;;;8.04;100.00
58975;BME280;44751;52.236;5.178;2023-04-01T20:28:14;100713.56;;;8.13;100.00
58975;BME280;44751;52.236;5.178;2023-04-01T20:33:42;100720.75;;;7.88;100.00
58975;BME280;44751;52.236;5.178;2023-04-01T20:42:34;100738.91;;;7.94;100.00
58975;BME280;44751;52.236;5.178;2023-04-01T20:51:29;100771.13;;;7.86;100.00
58975;BME280;44751;52.236;5.178;2023-04-01T20:57:00;100776.34;;;7.87;100.00
58975;BME280;44751;52.236;5.178;2023-04-01T21:07:58;100777.78;;;7.65;100.00
58975;BME280;44751;52.236;5.178;2023-04-01T21:13:19;100800.28;;;7.81;100.00
58975;BME280;44751;52.236;5.178;2023-04-01T21:15:53;100803.47;;;7.68;100.00
58975;BME280;44751;52.236;5.178;2023-04-01T21:28:35;100844.78;;;7.48;100.00
58975;BME280;44751;52.236;5.178;2023-04-01T21:45:09;100880.28;;;7.34;100.00
58975;BME280;44751;52.236;5.178;2023-04-01T22:08:29;100914.75;;;7.20;100.00
58975;BME280;44751;52.236;5.178;2023-04-01T22:13:23;100916.50;;;7.12;100.00
58975;BME280;44751;52.236;5.178;2023-04-01T22:19:42;100938.97;;;7.29;100.00
58975;BME280;44751;52.236;5.178;2023-04-01T22:25:15;100937.13;;;7.11;100.00
58975;BME280;44751;52.236;5.178;2023-04-01T22:27:52;100949.69;;;7.29;100.00
58975;BME280;44751;52.236;5.178;2023-04-01T22:30:43;100950.06;;;7.34;100.00
58975;BME280;44751;52.236;5.178;2023-04-01T22:43:59;100976.75;;;6.99;100.00
58975;BME280;44751;52.236;5.178;2023-04-01T22:50:00;100988.16;;;7.19;100.00
58975;BME280;44751;52.236;5.178;2023-04-01T22:52:33;100994.09;;;7.05;100.00
58975;BME280;44751;52.236;5.178;2023-04-01T22:55:25;101006.13;;;7.01;100.00
58975;BME280;44751;52.236;5.178;2023-04-01T22:58:08;101006.78;;;7.03;100.00